Tiempo atmosférico en la estación meteorológica de Naut Aran, Arties, Lleida (1185 m.)



Fecha
DESCASC
Temp. máxima en grados centígrados (hora)
DESCASC
Temp. mínima en grados centígrados (hora)
DESCASC
Temp. media en grados centígrados
DESCASC
Racha de viento máxima en m/sg (hora)
DESCASC
Velocidad máxima media en intervalos de 10 minutos(hora)
DESCASC
Precipitaciones diarias en mm
DESCASC
Precipitaciones de 00:00 a 06:00 en mm
DESCASC
Precipitaciones de 06:00 a 12:00 en mm
DESCASC
Precipitaciones de 12:00 a 18:00 en mm
DESCASC
Precipitaciones de 18:00 a 24:00 en mm
DESCASC
13-10-2019 23.6 (16:50) 10.5 (08:30) 17.1 5.83 (21:50) 3.61 (05:50) 0 0 0 0 0
12-10-2019 27.1 (15:00) 13.3 (23:59) 20.2 5.83 (12:40) 3.33 (12:40) 0 0 0 0 0
11-10-2019 27.8 (15:20) 7 (01:50) 17.4 5.56 (04:30) 2.5 (03:20) 0 0 0 0 0
10-10-2019 18.3 (16:10) 7.3 (00:00) 12.8 6.39 (15:20) 2.22 (15:30) 0 0 0 0 0
09-10-2019 15 (00:00) 9.4 (00:00) 12.2 7.5 (10:40) 2.22 (10:40) 0 0 0 0 0
08-10-2019 28.3 (15:00) 11.9 (00:00) 20.1 8.61 (18:50) 2.5 (16:30) 0 0 0 0 0
07-10-2019 19.6 (15:30) 3.6 (00:00) 11.6 7.78 (13:40) 2.5 (14:30) 0 0 0 0 0
06-10-2019 18.5 (16:30) 5.1 (00:00) 11.8 7.78 (14:50) 2.78 (14:30) 0 0 0 0 0
05-10-2019 21.8 (16:10) 8 (00:00) 14.9 7.22 (15:00) 2.22 (15:50) 0 0 0 0 0
04-10-2019 22.5 (15:30) 4 (00:00) 13.3 7.5 (15:40) 2.78 (15:50) 0 0 0 0 0
03-10-2019 20.3 (14:50) 4.3 (00:00) 12.3 6.94 (17:40) 2.5 (16:00) 0 0 0 0 0
02-10-2019 16 (15:10) 9.6 (00:00) 12.8 6.94 (13:40) 2.22 (13:40) 3.9 0 2.9 1 0
01-10-2019 26.3 (14:00) 10 (00:00) 18.1 10 (16:30) 2.78 (16:30) 0 0 0 0 0
30-09-2019 25.9 (16:00) 7.3 (00:00) 16.6 6.11 (15:10) 2.22 (04:30) 0 0 0 0 0
29-09-2019 28 (15:30) 10.5 (00:00) 19.3 8.61 (16:30) 2.5 (02:10) 0 0 0 0 0
28-09-2019 25.3 (15:30) 9.7 (00:00) 17.5 5.56 (16:50) 1.94 (23:30) 0 0 0 0 0
27-09-2019 24.9 (15:00) 9.1 (00:00) 17 8.06 (16:50) 3.06 (17:10) 0 0 0 0 0
26-09-2019 24.6 (14:40) 10.4 (00:00) 17.5 8.06 (17:00) 2.78 (17:20) 0 0 0 0 0
25-09-2019 19.8 (14:50) 11.1 (00:00) 15.4 6.39 (15:40) 2.22 (16:40) 0 0 0 0 0
24-09-2019 25.8 (16:40) 10.5 (00:00) 18.1 6.67 (14:30) 2.78 (17:10) 0 0 0 0 0
23-09-2019 21.3 (16:50) 7.9 (00:00) 14.6 5 (14:30) 1.67 (14:30) 0 0 0 0 0
22-09-2019 22.9 (13:20) 12 (00:00) 17.4 7.5 (15:50) 2.78 (15:50) 0.8 0 0 0.8 0
21-09-2019 21.8 (12:50) 12.7 (00:00) 17.2 6.39 (04:40) 2.78 (03:10) 0 0 0 0 0
20-09-2019 25.1 (16:10) 11.7 (00:00) 18.4 5.83 (07:40) 2.78 (23:00) 0 0 0 0 0
19-09-2019 24.4 (16:00) 9.6 (00:00) 17 6.39 (18:20) 2.22 (18:20) 0.6 0 0 0 0.6
18-09-2019 23.3 (12:40) 11.6 (00:00) 17.4 7.78 (18:40) 2.5 (18:40) 1.5 0 0 0 1.5
17-09-2019 25.5 (15:00) 12 (00:00) 18.8 6.67 (14:20) 2.5 (20:10) 15.3 0 0 0.2 15.1
16-09-2019 27.8 (15:10) 11.3 (00:00) 19.5 8.06 (20:30) 3.61 (20:20) 6.7 0 0 0.5 6.2
15-09-2019 27.2 (16:30) 12.4 (00:00) 19.8 5.83 (04:30) 2.22 (20:10) 0.1 0 0.1 0 0

Gráficas

Temp. máximas Temp. mínimas Temp. medias Precipitaciones Rachas de viento máximas Velocidades máximas media en intervalos de 10 minutos

Datos horarios

Fecha y hora oficial Temperatura (ºC) Velocidad del viento (km/h) Dirección del viento Racha (km/h) Dirección de racha Precipitación (mm) Presión (hPa) Tendencia (hPa) Humedad (%)
2019-10-14 23:00:00 10.5 5 Nordeste 16 Este 0.6 -- -- 88
2019-10-14 22:00:00 11.5 3 Este 12 Sudeste 4.9 -- -- 95
2019-10-14 21:00:00 11.8 3 Sudoeste 10 Nordeste 1 -- -- 94
2019-10-14 20:00:00 12.3 4 Nordeste 18 Este 0.1 -- -- 89
2019-10-14 19:00:00 12.8 4 Este 19 Nordeste 0 -- -- 82
2019-10-14 18:00:00 12.8 4 Este 16 Este 0.4 -- -- 88
2019-10-14 17:00:00 12 5 Este 13 Este 4.6 -- -- 93
2019-10-14 16:00:00 12.8 5 Nordeste 10 Este 3.2 -- -- 93
2019-10-14 15:00:00 14.1 2 Sur 18 Sudoeste 2.3 -- -- 87
2019-10-14 14:00:00 18.6 4 Sudoeste 21 Nordeste 0.2 -- -- 65
2019-10-14 13:00:00 17.9 9 Nordeste 28 Noroeste 0 -- -- 58
2019-10-14 12:00:00 21.4 5 Nordeste 27 Nordeste 0 -- -- 46
2019-10-14 11:00:00 18.7 0 Calma 12 Norte 0 -- -- 51
2019-10-14 10:00:00 17.5 6 Este 19 Este 0 -- -- 53
2019-10-14 09:00:00 13.3 9 Nordeste 18 Este 0 -- -- 60
2019-10-14 08:00:00 13.1 4 Este 16 Este 0 -- -- 59
2019-10-14 07:00:00 13.3 4 Nordeste 18 Este 0 -- -- 61
2019-10-14 06:00:00 14.5 5 Este 18 Nordeste 0 -- -- 58
2019-10-14 05:00:00 15.6 9 Este 21 Este 0 -- -- 60
2019-10-14 04:00:00 13.8 5 Nordeste 12 Nordeste 0 -- -- 70
2019-10-14 03:00:00 13.9 0 Calma 10 Nordeste 0 -- -- 72
2019-10-14 02:00:00 14.2 3 Nordeste 11 Oeste 0 -- -- 70
2019-10-14 01:00:00 16.6 3 Sudoeste 16 Nordeste 0 -- -- 60
2019-10-14 00:00:00 16.7 3 Nordeste 15 Nordeste 0 -- -- 61
2019-10-13 23:00:00 17.5 9 Nordeste 19 Este 0 -- -- 59
2019-10-13 22:00:00 16.5 6 Este 21 Este 0 -- -- 59
2019-10-13 21:00:00 16.3 5 Sudeste 15 Este 0 -- -- 60
2019-10-13 20:00:00 14.5 0 Calma 13 Este 0 -- -- 68
2019-10-13 19:00:00 16.9 2 Este 8 Nordeste 0 -- -- 61
2019-10-13 18:00:00 21.2 3 Sudoeste 12 Oeste 0 -- -- 48
2019-10-13 17:00:00 23.2 4 Oeste 20 Noroeste 0 -- -- 46
2019-10-13 16:00:00 21.9 2 Este 10 Nordeste 0 -- -- 52
2019-10-13 15:00:00 20.9 0 Calma 10 Oeste 0 -- -- 58
2019-10-13 14:00:00 21.4 0 Calma 14 Sudoeste 0 -- -- 50
2019-10-13 13:00:00 21.9 2 Noroeste 14 Noroeste 0 -- -- 47
2019-10-13 12:00:00 19.4 2 Este 10 Noroeste 0 -- -- 57
2019-10-13 11:00:00 16.7 0 Calma 12 Nordeste 0 -- -- 69
2019-10-13 10:00:00 12.7 5 Este 14 Nordeste 0 -- -- 70
2019-10-13 09:00:00 11.3 3 Nordeste 12 Nordeste 0 -- -- 76
2019-10-13 08:00:00 11 0 Calma 5 Norte 0 -- -- 79
2019-10-13 07:00:00 13.1 2 Nordeste 16 Nordeste 0 -- -- 71
2019-10-13 06:00:00 13.5 6 Este 20 Este 0 -- -- 70
2019-10-13 05:00:00 12.4 2 Este 14 Este 0 -- -- 75
2019-10-13 04:00:00 13.6 4 Este 18 Este 0 -- -- 69
2019-10-13 03:00:00 13.8 6 Nordeste 18 Este 0 -- -- 70
2019-10-13 02:00:00 11.8 0 Calma 9 Nordeste 0 -- -- 78
2019-10-13 01:00:00 12.2 0 Calma 6 Nordeste 0 -- -- 78
2019-10-13 00:00:00 13.4 0 Calma 12 Sudeste 0 -- -- 73
2019-10-12 23:00:00 15 4 Este 12 Este 0 -- -- 69
2019-10-12 22:00:00 14.9 0 Calma 6 Este 0 -- -- 72
2019-10-12 21:00:00 16.1 0 Calma 5 Nordeste 0 -- -- 69
2019-10-12 20:00:00 17.4 0 Calma 7 Nordeste 0 -- -- 65
2019-10-12 19:00:00 19.8 2 Sudeste 9 Oeste 0 -- -- 55
2019-10-12 18:00:00 22 4 Sudoeste 16 Oeste 0 -- -- 47
2019-10-12 17:00:00 22.7 3 Noroeste 19 Oeste 0 -- -- 44
2019-10-12 16:00:00 24.5 4 Sudoeste 21 Sudoeste 0 -- -- 43
2019-10-12 15:00:00 26.7 6 Sudoeste 19 Sudoeste 0 -- -- 39
2019-10-12 14:00:00 25.7 5 Oeste 20 Nordeste 0 -- -- 42
2019-10-12 13:00:00 22.4 9 Nordeste 21 Este 0 -- -- 52
2019-10-12 12:00:00 20.1 9 Nordeste 20 Nordeste 0 -- -- 58
2019-10-12 11:00:00 17.6 4 Este 21 Este 0 -- -- 61
2019-10-12 10:00:00 16.7 2 Este 14 Este 0 -- -- 59
2019-10-12 09:00:00 16.7 5 Este 14 Este 0 -- -- 60
2019-10-12 08:00:00 16.8 5 Este 17 Sudeste 0 -- -- 58
2019-10-12 07:00:00 16.3 9 Este 20 Este 0 -- -- 61
2019-10-12 06:00:00 14.6 4 Nordeste 12 Nordeste 0 -- -- 69
2019-10-12 05:00:00 15.1 0 Calma 14 Este 0 -- -- 68
2019-10-12 04:00:00 17.2 6 Este 18 Sudeste 0 -- -- 61
2019-10-12 03:00:00 16.9 7 Este 19 Este 0 -- -- 62
2019-10-12 02:00:00 16.5 7 Este 17 Este 0 -- -- 60
2019-10-12 01:00:00 16.2 6 Este 21 Este 0 -- -- 61
2019-10-12 00:00:00 16.3 7 Este 19 Este 0 -- -- 60
2019-10-11 23:00:00 15.8 7 Este 18 Este 0 -- -- 60
2019-10-11 22:00:00 14.9 5 Este 13 Nordeste 0 -- -- 64
2019-10-11 21:00:00 15.5 3 Este 15 Este 0 -- -- 63
2019-10-11 20:00:00 15.5 4 Este 13 Nordeste 0 -- -- 66
2019-10-11 19:00:00 18.6 3 Sudeste 14 Norte 0 -- -- 51
2019-10-11 18:00:00 22.5 0 Calma 13 Oeste 0 -- -- 37
2019-10-11 17:00:00 25.7 3 Oeste 19 Sudoeste 0 -- -- 31
2019-10-11 16:00:00 26.9 6 Oeste 19 Sudoeste 0 -- -- 29
2019-10-11 15:00:00 27.5 5 Sudoeste 15 Sudoeste 0 -- -- 28
2019-10-11 14:00:00 25.8 5 Oeste 12 Oeste 0 -- -- 31
2019-10-11 13:00:00 20.1 0 Calma 5 Este 0 -- -- 48
2019-10-11 12:00:00 17.7 0 Calma 5 Norte 0 -- -- 53
2019-10-11 11:00:00 14.4 0 Calma 14 Nordeste 0 -- -- 57
2019-10-11 10:00:00 9.6 2 Este 15 Este 0 -- -- 65
2019-10-11 09:00:00 7.4 0 Calma 15 Sudeste 0 -- -- 71
2019-10-11 08:00:00 8.8 4 Este 12 Sudeste 0 -- -- 64
2019-10-11 07:00:00 10.8 6 Este 18 Sudeste 0 -- -- 52
2019-10-11 06:00:00 9.1 5 Este 16 Este 0 -- -- 63
2019-10-11 05:00:00 9.1 3 Este 20 Sudeste 0 -- -- 62
2019-10-11 04:00:00 11.3 7 Este 19 Este 0 -- -- 56
2019-10-11 03:00:00 10.2 6 Sudeste 18 Este 0 -- -- 62
2019-10-11 02:00:00 8.3 4 Este 11 Sudeste 0 -- -- 82
2019-10-11 01:00:00 7.4 0 Calma 8 Sudeste 0 -- -- 91
2019-10-11 00:00:00 7.7 0 Calma 9 Este 0 -- -- 92
2019-10-10 23:00:00 7.9 2 Nordeste 9 Este 0 -- -- 90
2019-10-10 22:00:00 8.5 2 Este 12 Este 0 -- -- 86
2019-10-10 21:00:00 8.6 0 Calma 7 Este 0 -- -- 87
2019-10-10 20:00:00 10.2 3 Este 6 Este 0 -- -- 81
2019-10-10 19:00:00 13 3 Sudeste 11 Sudoeste 0 -- -- 65
2019-10-10 18:00:00 15.6 4 Sudoeste 19 Sudoeste 0 -- -- 55
2019-10-10 17:00:00 16.7 7 Sudoeste 20 Sudoeste 0 -- -- 51
2019-10-10 16:00:00 17.7 6 Sudoeste 23 Sudoeste 0 -- -- 51
2019-10-10 15:00:00 17 6 Sudoeste 19 Oeste 0 -- -- 51
2019-10-10 14:00:00 15.8 5 Sudoeste 14 Sudoeste 0 -- -- 60
2019-10-10 13:00:00 13 3 Sudoeste 9 Nordeste 0 -- -- 68
2019-10-10 12:00:00 11.2 0 Calma 7 Noroeste 0 -- -- 72
2019-10-10 11:00:00 -- 0 Calma 13 Nordeste 0 -- -- --
2019-10-10 10:00:00 9.2 5 Nordeste 10 Este 0 -- -- 82
2019-10-10 09:00:00 8.8 0 Calma 7 Sudoeste 0 -- -- 93
2019-10-10 08:00:00 8.9 0 Calma 4 Sudoeste 0 -- -- 92
2019-10-10 07:00:00 8.9 0 Calma 8 Sudoeste 0 -- -- 92
2019-10-10 06:00:00 8.9 5 Nordeste 10 Este 0 -- -- 92
2019-10-10 05:00:00 9.1 2 Sudoeste 7 Sudoeste 0 -- -- 92
2019-10-10 04:00:00 8.8 0 Calma 10 Oeste 0 -- -- 93
2019-10-10 03:00:00 8.2 0 Calma 3 Este 0 -- -- 92
2019-10-10 02:00:00 9.2 0 Calma 5 Sudeste 0 -- -- 91
2019-10-10 01:00:00 9.3 0 Calma 5 Sudoeste 0 -- -- 90
2019-10-10 00:00:00 9.6 0 Calma 9 Sur 0 -- -- 87
2019-10-09 23:00:00 9.8 3 Sudoeste 9 Sudoeste 0 -- -- 87
2019-10-09 22:00:00 10.7 2 Sudoeste 11 Sudoeste 0 -- -- 83
2019-10-09 21:00:00 11.2 4 Sudoeste 14 Sudoeste 0 -- -- 81
2019-10-09 20:00:00 11.4 5 Sudoeste 17 Sudoeste 0 -- -- 79
2019-10-09 19:00:00 11.8 6 Sudoeste 17 Sudoeste 0 -- -- 76
2019-10-09 18:00:00 12.9 4 Sudoeste 19 Sudoeste 0 -- -- 73
2019-10-09 17:00:00 13.5 7 Sudoeste 20 Sudoeste 0 -- -- 72
2019-10-09 16:00:00 14.2 7 Sudoeste 19 Oeste 0 -- -- 23
2019-10-09 15:00:00 14.6 5 Oeste 18 Sudoeste 0 -- -- 71
2019-10-09 14:00:00 13.7 7 Sudoeste 22 Oeste 0 -- -- 73
2019-10-09 13:00:00 14.6 4 Sudoeste 14 Sudoeste 0 -- -- 74
2019-10-09 12:00:00 13.5 5 Sudoeste 18 Oeste 0 -- -- 76
2019-10-09 11:00:00 12.9 5 Sudoeste 27 Sudoeste 0 -- -- 81
2019-10-09 10:00:00 12.8 4 Sudoeste 12 Oeste 0 -- -- 85
2019-10-09 09:00:00 12 4 Este 18 Oeste 0 -- -- 86
2019-10-09 08:00:00 11.3 3 Sudoeste 18 Oeste 0 -- -- 91
2019-10-09 07:00:00 10.7 3 Este 14 Nordeste 0 -- -- 92
2019-10-09 06:00:00 9.6 0 Calma 10 Nordeste 0 -- -- 94
2019-10-09 05:00:00 10.3 4 Este 11 Este 0 -- -- 93
2019-10-09 04:00:00 10.1 0 Calma 6 Nordeste 0 -- -- 94
2019-10-09 03:00:00 10.9 0 Calma 5 Sudeste 0 -- -- 94
2019-10-09 02:00:00 12 0 Calma 8 Nordeste 0 -- -- 91
2019-10-09 01:00:00 13.1 0 Calma 6 Nordeste 0 -- -- 87
2019-10-09 00:00:00 15 2 Este 7 Sudoeste 0 -- -- 79
2019-10-08 23:00:00 16.6 0 Calma 5 Sur 0 -- -- 77
2019-10-08 22:00:00 17.6 0 Calma 9 Sudoeste 0 -- -- 73
2019-10-08 21:00:00 18.4 3 Sudoeste 17 Sudoeste 0 -- -- 68
2019-10-08 20:00:00 18.7 5 Sudoeste 18 Sudoeste 0 -- -- 66
2019-10-08 19:00:00 19.9 8 Sudoeste 31 Sudoeste 0 -- -- 62
2019-10-08 18:00:00 21.5 7 Sudoeste 30 Sudoeste 0 -- -- 57
2019-10-08 17:00:00 24 8 Sudoeste 22 Sur 0 -- -- 48
2019-10-08 16:00:00 26 8 Sudoeste 23 Sudoeste 0 -- -- 43
2019-10-08 15:00:00 28.3 4 Sudoeste 17 Oeste 0 -- -- 42
2019-10-08 14:00:00 25.7 4 Sudoeste 9 Sudoeste 0 -- -- 48
2019-10-08 13:00:00 23.3 3 Sudeste 5 Oeste 0 -- -- 57
2019-10-08 12:00:00 20.8 0 Calma 3 Sudeste 0 -- -- 66
2019-10-08 11:00:00 17.5 0 Calma 3 Sudeste 0 -- -- 74
2019-10-08 10:00:00 12.6 0 Calma 6 Este 0 -- -- 93
2019-10-08 09:00:00 12.2 0 Calma 9 Este 0 -- -- 91
2019-10-08 08:00:00 13.4 0 Calma 8 Oeste 0 -- -- 87
2019-10-08 07:00:00 14.4 0 Calma 12 Este 0 -- -- 84
2019-10-08 06:00:00 14.1 0 Calma 9 Nordeste 0 -- -- 82
2019-10-08 05:00:00 13.7 0 Calma 9 Este 0 -- -- 82
2019-10-08 04:00:00 13.7 0 Calma 11 Este 0 -- -- 80
2019-10-08 03:00:00 13.5 3 Este 11 Este 0 -- -- 78
2019-10-08 02:00:00 14.1 5 Este 12 Sudeste 0 -- -- 74
2019-10-08 01:00:00 12.8 2 Este 11 Este 0 -- -- 72
2019-10-08 00:00:00 12.2 4 Este 10 Nordeste 0 -- -- 72
2019-10-07 23:00:00 11.8 0 Calma 6 Este 0 -- -- 77
2019-10-07 22:00:00 12.1 0 Calma 5 Este 0 -- -- 75
2019-10-07 21:00:00 12.5 0 Calma 8 Sudoeste 0 -- -- 70
2019-10-07 20:00:00 13.5 3 Sudoeste 18 Oeste 0 -- -- 62
2019-10-07 19:00:00 14.4 4 Oeste 18 Sudoeste 0 -- -- 52
2019-10-07 18:00:00 16.4 8 Sudoeste 21 Sudoeste 0 -- -- 37
2019-10-07 17:00:00 18.1 8 Sudoeste 23 Sudoeste 0 -- -- 31
2019-10-07 16:00:00 19.3 9 Sudoeste 26 Sudoeste 0 -- -- 28
2019-10-07 15:00:00 19.1 7 Sudoeste 25 Sudoeste 0 -- -- 28
2019-10-07 14:00:00 17.6 8 Sudoeste 28 Sudoeste 0 -- -- 31
2019-10-07 13:00:00 16.2 6 Sudoeste 18 Sudoeste 0 -- -- 35
2019-10-07 12:00:00 12.6 3 Sur 8 Oeste 0 -- -- 60
2019-10-07 11:00:00 8.7 0 Calma 4 Sudoeste 0 -- -- 78
2019-10-07 10:00:00 4.8 0 Calma 8 Sudeste 0 -- -- 92
2019-10-07 09:00:00 4.4 2 Este 11 Nordeste 0 -- -- 90
2019-10-07 08:00:00 3.9 6 Nordeste 10 Nordeste 0 -- -- 92
2019-10-07 07:00:00 4.4 4 Nordeste 11 Nordeste 0 -- -- 91
2019-10-07 06:00:00 5.7 0 Calma 6 Este 0 -- -- 90
2019-10-07 05:00:00 5.8 0 Calma 10 Nordeste 0 -- -- 90
2019-10-07 04:00:00 5.8 0 Calma 8 Nordeste 0 -- -- 92
2019-10-07 03:00:00 6.4 4 Nordeste 9 Este 0 -- -- 90
2019-10-07 02:00:00 7.5 3 Nordeste 9 Sudoeste 0 -- -- 87
2019-10-07 01:00:00 9 0 Calma 12 Oeste 0 -- -- 85
2019-10-07 00:00:00 10.2 3 Sudoeste 14 Oeste 0 -- -- 83
2019-10-06 23:00:00 10.6 0 Calma 14 Sudoeste 0 -- -- 85
2019-10-06 22:00:00 11.2 3 Oeste 16 Oeste 0 -- -- 87
2019-10-06 21:00:00 11.7 3 Noroeste 17 Sudoeste 0 -- -- 91
2019-10-06 20:00:00 12.5 4 Sudoeste 17 Sudoeste 0 -- -- 88
2019-10-06 19:00:00 13.9 4 Sudoeste 21 Oeste 0 -- -- 73
2019-10-06 18:00:00 15 7 Sudoeste 22 Oeste 0 -- -- 63
2019-10-06 17:00:00 17 7 Sudoeste 23 Sudoeste 0 -- -- 56
2019-10-06 16:00:00 17.4 8 Sudoeste 27 Oeste 0 -- -- 57
2019-10-06 15:00:00 18 6 Sudoeste 28 Sudoeste 0 -- -- 56
2019-10-06 14:00:00 17.2 6 Oeste 21 Oeste 0 -- -- 58
2019-10-06 13:00:00 15.9 2 Sudoeste 7 Oeste 0 -- -- 57
2019-10-06 12:00:00 14.9 0 Calma 5 Oeste 0 -- -- 64
2019-10-06 11:00:00 11 0 Calma 4 Sudoeste 0 -- -- 84
2019-10-06 10:00:00 7.1 0 Calma 6 Nordeste 0 -- -- 92
2019-10-06 09:00:00 5.8 0 Calma 8 Nordeste 0 -- -- 92
2019-10-06 08:00:00 6.9 4 Nordeste 11 Nordeste 0 -- -- 89
2019-10-06 07:00:00 6.4 3 Nordeste 10 Nordeste 0 -- -- 92
2019-10-06 06:00:00 5.3 0 Calma 6 Nordeste 0 -- -- 93
2019-10-06 05:00:00 6.3 0 Calma 6 Nordeste 0 -- -- 91
2019-10-06 04:00:00 7.5 3 Este 16 Este 0 -- -- 86
2019-10-06 03:00:00 6.6 0 Calma 10 Este 0 -- -- 93
2019-10-06 02:00:00 6.7 3 Nordeste 6 Este 0 -- -- 93
2019-10-06 01:00:00 8.6 3 Este 10 Este 0 -- -- 90
2019-10-06 00:00:00 8.5 0 Calma 8 Nordeste 0 -- -- 94
2019-10-05 23:00:00 9.4 0 Calma 10 Nordeste 0 -- -- 90
2019-10-05 22:00:00 10.3 3 Este 10 Nordeste 0 -- -- 88
2019-10-05 21:00:00 11.2 3 Este 11 Este 0 -- -- 88
2019-10-05 20:00:00 12.7 0 Calma 11 Sur 0 -- -- 83
2019-10-05 19:00:00 15.8 4 Sudoeste 22 Oeste 0 -- -- 68
2019-10-05 18:00:00 18.6 5 Sudoeste 24 Sudoeste 0 -- -- 53
2019-10-05 17:00:00 20.1 7 Sudoeste 21 Sudoeste 0 -- -- 47
2019-10-05 16:00:00 21.4 6 Oeste 22 Noroeste 0 -- -- 46
2019-10-05 15:00:00 20.4 6 Oeste 26 Sudoeste 0 -- -- 51
2019-10-05 14:00:00 19.6 5 Sudoeste 19 Sudoeste 0 -- -- 58
2019-10-05 13:00:00 18.3 3 Sudoeste 10 Oeste 0 -- -- 58
2019-10-05 12:00:00 15.7 5 Sudoeste 14 Oeste 0 -- -- 67
2019-10-05 11:00:00 12 2 Sur 6 Sudeste 0 -- -- 79
2019-10-05 10:00:00 8.5 0 Calma 11 Nordeste 0 -- -- 91
2019-10-05 09:00:00 8.5 7 Nordeste 13 Este 0 -- -- 87
2019-10-05 08:00:00 9.2 3 Este 10 Este 0 -- -- 93
2019-10-05 07:00:00 8.7 4 Este 12 Nordeste 0 -- -- 95
2019-10-05 06:00:00 8.5 0 Calma 8 Sudeste 0 -- -- 95
2019-10-05 05:00:00 8.7 0 Calma 11 Nordeste 0 -- -- 92
2019-10-05 04:00:00 10.4 4 Este 11 Este 0 -- -- 91
2019-10-05 03:00:00 11.4 3 Nordeste 6 Nordeste 0 -- -- 93
2019-10-05 02:00:00 11.5 0 Calma 10 Sudoeste 0 -- -- 92
2019-10-05 01:00:00 12.2 2 Oeste 12 Sudoeste 0 -- -- 91
2019-10-05 00:00:00 12.6 0 Calma 9 Sudoeste 0 -- -- 91
2019-10-04 23:00:00 13.2 3 Oeste 14 Sudoeste 0 -- -- 87
2019-10-04 22:00:00 13.9 5 Sudoeste 16 Oeste 0 -- -- 86
2019-10-04 21:00:00 14.4 3 Oeste 17 Sudoeste 0 -- -- 84
2019-10-04 20:00:00 15.1 2 Sudoeste 15 Sudoeste 0 -- -- 82
2019-10-04 19:00:00 16 6 Sudoeste 24 Sudoeste 0 -- -- 76
2019-10-04 18:00:00 17.4 8 Sudoeste 24 Oeste 0 -- -- 65
2019-10-04 17:00:00 20.6 8 Sudoeste 25 Oeste 0 -- -- 52
2019-10-04 16:00:00 21.9 9 Sudoeste 27 Sudoeste 0 -- -- 46
2019-10-04 15:00:00 22.2 7 Sudoeste 23 Sudoeste 0 -- -- 44
2019-10-04 14:00:00 21.4 6 Sudoeste 20 Sudoeste 0 -- -- 45
2019-10-04 13:00:00 20.7 5 Sudoeste 16 Sudoeste 0 -- -- 48
2019-10-04 12:00:00 16.6 0 Calma 3 Sudeste 0 -- -- 58
2019-10-04 11:00:00 13.1 0 Calma 9 Este 0 -- -- 65
2019-10-04 10:00:00 7.4 0 Calma 12 Este 0 -- -- 74
2019-10-04 09:00:00 6.4 5 Este 15 Este 0 -- -- 72
2019-10-04 08:00:00 4.2 0 Calma 6 Este 0 -- -- 83
2019-10-04 07:00:00 4.4 0 Calma 5 Nordeste 0 -- -- 82
2019-10-04 06:00:00 6.1 0 Calma 10 Nordeste 0 -- -- 71
2019-10-04 05:00:00 6 3 Este 11 Nordeste 0 -- -- 71
2019-10-04 04:00:00 6.1 3 Nordeste 14 Este 0 -- -- 71
2019-10-04 03:00:00 6.3 5 Este 12 Este 0 -- -- 70
2019-10-04 02:00:00 5.9 2 Este 13 Este 0 -- -- 80
2019-10-04 01:00:00 6.5 0 Calma 12 Este 0 -- -- 82
2019-10-04 00:00:00 7.3 3 Este 15 Este 0 -- -- 81
2019-10-03 23:00:00 8.1 5 Este 12 Este 0 -- -- 87
2019-10-03 22:00:00 8.5 0 Calma 14 Nordeste 0 -- -- 88
2019-10-03 21:00:00 10 4 Este 9 Nordeste 0 -- -- 85
2019-10-03 20:00:00 12.8 2 Oeste 14 Oeste 0 -- -- 77
2019-10-03 19:00:00 15.3 5 Sudoeste 19 Oeste 0 -- -- 59
2019-10-03 18:00:00 17.3 5 Oeste 25 Sudoeste 0 -- -- 47
2019-10-03 17:00:00 18.9 7 Sudoeste 22 Sudoeste 0 -- -- 40
2019-10-03 16:00:00 19.6 9 Sudoeste 23 Sudoeste 0 -- -- 35
2019-10-03 15:00:00 20.1 4 Sudoeste 11 Sudoeste 0 -- -- 35
2019-10-03 14:00:00 19.2 2 Sudoeste 8 Sudoeste 0 -- -- 39
2019-10-03 13:00:00 15.6 2 Sur 9 Sudoeste 0 -- -- 49
2019-10-03 12:00:00 13 3 Sur 6 Sudoeste 0 -- -- 56
2019-10-03 11:00:00 10.5 0 Calma 3 Sudeste 0 -- -- 69
2019-10-03 10:00:00 7 0 Calma 12 Este 0 -- -- 81
2019-10-03 09:00:00 5.1 6 Nordeste 13 Nordeste 0 -- -- 84
2019-10-03 08:00:00 4.6 4 Este 11 Este 0 -- -- 87
2019-10-03 07:00:00 4.8 3 Nordeste 9 Sudeste 0 -- -- 90
2019-10-03 06:00:00 5.4 0 Calma 8 Este 0 -- -- 92
2019-10-03 05:00:00 6.1 2 Nordeste 8 Nordeste 0 -- -- 91
2019-10-03 04:00:00 8.4 0 Calma 8 Este 0 -- -- 87
2019-10-03 03:00:00 8.8 0 Calma 7 Sur 0 -- -- 89
2019-10-03 02:00:00 9.3 0 Calma 10 Sudoeste 0 -- -- 92
2019-10-03 01:00:00 10.1 0 Calma 10 Sudoeste 0 -- -- 93
2019-10-03 00:00:00 10.2 0 Calma 11 Oeste 0 -- -- 93
2019-10-02 23:00:00 10.5 0 Calma 10 Sudoeste 0 -- -- 92
2019-10-02 22:00:00 10.6 3 Sudoeste 12 Oeste 0 -- -- 92
2019-10-02 21:00:00 10.9 3 Sudoeste 11 Sudoeste 0 -- -- 91
2019-10-02 20:00:00 11.2 4 Sudoeste 15 Sudoeste 0 -- -- 88
2019-10-02 19:00:00 12.1 4 Sudoeste 17 Sudoeste 0 -- -- 81
2019-10-02 18:00:00 13.6 5 Sudoeste 20 Sudoeste 0 -- -- 69
2019-10-02 17:00:00 13.4 6 Sudoeste 18 Sudoeste 0.1 -- -- 72
2019-10-02 16:00:00 14.6 6 Sudoeste 24 Sudoeste 0 -- -- 69
2019-10-02 15:00:00 15.1 6 Sudoeste 23 Oeste 0 -- -- 65
2019-10-02 14:00:00 15.9 8 Sudoeste 25 Sudoeste 0.5 -- -- 67
2019-10-02 13:00:00 13.3 5 Sudoeste 19 Sudoeste 0.4 -- -- 88
2019-10-02 12:00:00 11.9 4 Sudoeste 16 Sudoeste 0.6 -- -- 94
2019-10-02 11:00:00 11.3 5 Sudoeste 18 Sudoeste 1.1 -- -- 94
2019-10-02 10:00:00 10.5 0 Calma 10 Oeste 0.2 -- -- 94
2019-10-02 09:00:00 9.8 2 Sudeste 12 Sudoeste 0.3 -- -- 96
2019-10-02 08:00:00 9.8 4 Sudoeste 12 Oeste 0.5 -- -- 96
2019-10-02 07:00:00 10.3 0 Calma 8 Oeste 0.2 -- -- 94
2019-10-02 06:00:00 10.7 2 Este 8 Sudeste 0 -- -- 91
2019-10-02 05:00:00 10.8 0 Calma 6 Oeste 0 -- -- 91
2019-10-02 04:00:00 11.1 3 Sudoeste 8 Sudoeste 0 -- -- 91
2019-10-02 03:00:00 11.2 2 Sudoeste 7 Sudoeste 0 -- -- 93
2019-10-02 02:00:00 11.8 0 Calma 12 Sudoeste 0 -- -- 91
2019-10-02 01:00:00 11.8 0 Calma 12 Sudoeste 0 -- -- 91
2019-10-02 00:00:00 12.4 3 Sudoeste 17 Sudoeste 0 -- -- 91
2019-10-01 23:00:00 13.4 4 Sudoeste 12 Oeste 0 -- -- 91
2019-10-01 22:00:00 13.7 3 Sudoeste 12 Sudoeste 0 -- -- 90
2019-10-01 21:00:00 14.4 2 Oeste 15 Noroeste 0 -- -- 86
2019-10-01 20:00:00 15.2 5 Sudoeste 18 Sudoeste 0 -- -- 82
2019-10-01 19:00:00 16.4 4 Oeste 17 Sudoeste 0 -- -- 79
2019-10-01 18:00:00 16.9 8 Sudoeste 24 Sudoeste 0 -- -- 75
2019-10-01 17:00:00 18.4 8 Sudoeste 36 Sudoeste 0 -- -- 68
2019-10-01 16:00:00 22.1 9 Sudoeste 26 Noroeste 0 -- -- 54
2019-10-01 15:00:00 24.6 8 Sudoeste 22 Oeste 0 -- -- 39
2019-10-01 14:00:00 26.1 4 Sudoeste 17 Oeste 0 -- -- 38
2019-10-01 13:00:00 23.7 4 Oeste 14 Oeste 0 -- -- 44
2019-10-01 12:00:00 20.6 0 Calma 5 Este 0 -- -- 57
2019-10-01 11:00:00 17.1 0 Calma 5 Este 0 -- -- 65
2019-10-01 10:00:00 11.6 0 Calma 6 Sur 0 -- -- 78
2019-10-01 09:00:00 10 0 Calma 13 Este 0 -- -- 74
2019-10-01 08:00:00 11 5 Este 16 Nordeste 0 -- -- 68
2019-10-01 07:00:00 10.3 4 Este 11 Sudeste 0 -- -- 72
2019-10-01 06:00:00 12.4 5 Este 14 Este 0 -- -- 63
2019-10-01 05:00:00 11.6 4 Este 13 Este 0 -- -- 66
2019-10-01 04:00:00 11.1 0 Calma 15 Nordeste 0 -- -- 71
2019-10-01 03:00:00 12.9 4 Este 17 Este 0 -- -- 66
2019-10-01 02:00:00 13.2 6 Este 17 Este 0 -- -- 68
2019-10-01 01:00:00 11.1 0 Calma 8 Nordeste 0 -- -- 84
2019-10-01 00:00:00 12.2 2 Este 11 Nordeste 0 -- -- 80
2019-09-30 23:00:00 12.7 3 Este 13 Este 0 -- -- 82
2019-09-30 22:00:00 13.7 5 Nordeste 13 Nordeste 0 -- -- 83
2019-09-30 21:00:00 14.5 3 Este 9 Este 0 -- -- 82
2019-09-30 20:00:00 16.7 0 Calma 10 Sudoeste 0 -- -- 77
2019-09-30 19:00:00 20.4 2 Sudoeste 18 Oeste 0 -- -- 60
2019-09-30 18:00:00 23.2 4 Sudoeste 17 Oeste 0 -- -- 46
2019-09-30 17:00:00 25.6 5 Oeste 19 Oeste 0 -- -- 41
2019-09-30 16:00:00 25.7 5 Sudoeste 22 Oeste 0 -- -- 40
2019-09-30 15:00:00 25.3 6 Sudoeste 19 Sudoeste 0 -- -- 40
2019-09-30 14:00:00 23.6 5 Sudoeste 15 Sudoeste 0 -- -- 44
2019-09-30 13:00:00 21.8 4 Sudoeste 11 Sudoeste 0 -- -- 49
2019-09-30 12:00:00 19.4 3 Sudoeste 11 Oeste 0 -- -- 56
2019-09-30 11:00:00 16.5 0 Calma 2 Sudeste 0 -- -- 68
2019-09-30 10:00:00 10.6 0 Calma 6 Nordeste 0 -- -- 88
2019-09-30 09:00:00 9.4 3 Este 12 Nordeste 0 -- -- 87
2019-09-30 08:00:00 7.4 0 Calma 7 Nordeste 0 -- -- 93
2019-09-30 07:00:00 8.3 2 Este 11 Nordeste 0 -- -- 91
2019-09-30 06:00:00 8.4 2 Nordeste 10 Nordeste 0 -- -- 90
2019-09-30 05:00:00 10.4 4 Este 16 Este 0 -- -- 81
2019-09-30 04:00:00 9.5 5 Nordeste 13 Este 0 -- -- 90
2019-09-30 03:00:00 9.6 0 Calma 10 Nordeste 0 -- -- 89
2019-09-30 02:00:00 10.3 0 Calma 10 Este 0 -- -- 86
2019-09-30 01:00:00 11.1 0 Calma 12 Nordeste 0 -- -- 83
2019-09-30 00:00:00 11.3 0 Calma 8 Nordeste 0 -- -- 82
2019-09-29 23:00:00 12 0 Calma 12 Nordeste 0 -- -- 76
2019-09-29 22:00:00 13 0 Calma 7 Este 0 -- -- 72
2019-09-29 21:00:00 14.4 0 Calma 13 Este 0 -- -- 64
2019-09-29 20:00:00 16.6 6 Nordeste 14 Oeste 0 -- -- 53
2019-09-29 19:00:00 21.4 3 Sudoeste 22 Sudoeste 0 -- -- 36
2019-09-29 18:00:00 23.3 6 Sudoeste 26 Sudoeste 0 -- -- 33
2019-09-29 17:00:00 25 6 Sudoeste 31 Sudoeste 0 -- -- 31
2019-09-29 16:00:00 26.8 7 Sudoeste 17 Sudoeste 0 -- -- 29
2019-09-29 15:00:00 27.8 5 Sudoeste 17 Sudoeste 0 -- -- 29
2019-09-29 14:00:00 26.8 4 Sudoeste 13 Sudoeste 0 -- -- 31
2019-09-29 13:00:00 22.7 0 Calma 5 Sudeste 0 -- -- 46
2019-09-29 12:00:00 19.7 0 Calma 4 Este 0 -- -- 53
2019-09-29 11:00:00 16.9 0 Calma 8 Este 0 -- -- 57
2019-09-29 10:00:00 12.6 0 Calma 16 Este 0 -- -- 63
2019-09-29 09:00:00 12.4 5 Este 16 Este 0 -- -- 55
2019-09-29 08:00:00 12 5 Este 13 Este 0 -- -- 57
2019-09-29 07:00:00 12.8 6 Este 20 Este 0 -- -- 55
2019-09-29 06:00:00 12.5 7 Este 15 Este 0 -- -- 58
2019-09-29 05:00:00 13 6 Este 22 Este 0 -- -- 57
2019-09-29 04:00:00 13.1 5 Este 19 Este 0 -- -- 59
2019-09-29 03:00:00 12.7 3 Este 20 Este 0 -- -- 65
2019-09-29 02:00:00 14.5 7 Este 19 Sudeste 0 -- -- 62
2019-09-29 01:00:00 15.1 6 Sudeste 19 Sudeste 0 -- -- 63
2019-09-29 00:00:00 15 6 Este 19 Este 0 -- -- 64
2019-09-28 23:00:00 13.3 4 Este 11 Este 0 -- -- 77
2019-09-28 22:00:00 12.6 3 Este 13 Este 0 -- -- 82
2019-09-28 21:00:00 13 2 Este 9 Nordeste 0 -- -- 88
2019-09-28 20:00:00 15 0 Calma 6 Sudoeste 0 -- -- 82
2019-09-28 19:00:00 18 0 Calma 15 Oeste 0 -- -- 70
2019-09-28 18:00:00 20.2 4 Sudoeste 18 Oeste 0 -- -- 60
2019-09-28 17:00:00 22.8 6 Sudoeste 20 Sudoeste 0 -- -- 50
2019-09-28 16:00:00 24.8 5 Sudoeste 15 Oeste 0 -- -- 41
2019-09-28 15:00:00 24.9 6 Oeste 15 Sudoeste 0 -- -- 39
2019-09-28 14:00:00 24 4 Sudoeste 13 Sudoeste 0 -- -- 42
2019-09-28 13:00:00 21.3 2 Sudoeste 6 Sudoeste 0 -- -- 53
2019-09-28 12:00:00 18.3 0 Calma 4 Sudeste 0 -- -- 60
2019-09-28 11:00:00 15.5 0 Calma 8 Sudoeste 0 -- -- 71
2019-09-28 10:00:00 11.1 0 Calma 6 Sudoeste 0 -- -- 87
2019-09-28 09:00:00 10.2 3 Este 14 Nordeste 0 -- -- 84
2019-09-28 08:00:00 10.2 0 Calma 3 Nordeste 0 -- -- 89
2019-09-28 07:00:00 12.1 0 Calma 8 Este 0 -- -- 84
2019-09-28 06:00:00 11.9 0 Calma 12 Nordeste 0 -- -- 82
2019-09-28 05:00:00 11.1 7 Nordeste 13 Nordeste 0 -- -- 87
2019-09-28 04:00:00 11.3 3 Nordeste 12 Este 0 -- -- 84
2019-09-28 03:00:00 13.5 3 Este 8 Sudeste 0 -- -- 88
2019-09-28 02:00:00 12.9 0 Calma 2 Norte 0 -- -- 89
2019-09-28 01:00:00 13.3 0 Calma 4 Sudoeste 0 -- -- 86
2019-09-28 00:00:00 14.6 0 Calma 12 Oeste 0 -- -- 81
2019-09-27 23:00:00 14.8 0 Calma 6 Sudoeste 0 -- -- 79
2019-09-27 22:00:00 14.6 0 Calma 5 Sudoeste 0 -- -- 78
2019-09-27 21:00:00 15.3 0 Calma 15 Oeste 0 -- -- 73
2019-09-27 20:00:00 15.6 6 Sudoeste 20 Sudoeste 0 -- -- 70
2019-09-27 19:00:00 16.1 7 Sudoeste 23 Sudoeste 0 -- -- 69
2019-09-27 18:00:00 17.9 8 Sudoeste 28 Sudoeste 0 -- -- 64
2019-09-27 17:00:00 22.3 9 Sudoeste 29 Sudoeste 0 -- -- 50
2019-09-27 16:00:00 23.7 6 Oeste 21 Sudoeste 0 -- -- 45
2019-09-27 15:00:00 24.8 5 Sudoeste 16 Oeste 0 -- -- 43
2019-09-27 14:00:00 23.1 5 Sudoeste 16 Oeste 0 -- -- 46
2019-09-27 13:00:00 21.6 4 Sudoeste 15 Sudoeste 0 -- -- 49
2019-09-27 12:00:00 18.8 5 Sudoeste 14 Sudeste 0 -- -- 58
2019-09-27 11:00:00 16.5 3 Sudeste 9 Sudeste 0 -- -- 65
2019-09-27 10:00:00 12.6 0 Calma 9 Este 0 -- -- 88
2019-09-27 09:00:00 10.1 0 Calma 10 Este 0 -- -- 93
2019-09-27 08:00:00 9.4 0 Calma 7 Nordeste 0 -- -- 94
2019-09-27 07:00:00 9.5 3 Nordeste 9 Nordeste 0 -- -- 95
2019-09-27 06:00:00 9.4 0 Calma 5 Nordeste 0 -- -- 94
2019-09-27 05:00:00 10 0 Calma 4 Nordeste 0 -- -- 94
2019-09-27 04:00:00 10.9 0 Calma 6 Este 0 -- -- 94
2019-09-27 03:00:00 10.8 0 Calma 5 Este 0 -- -- 94
2019-09-27 02:00:00 11.5 0 Calma 11 Nordeste 0 -- -- 93
2019-09-27 01:00:00 12.2 4 Nordeste 9 Nordeste 0 -- -- 92
2019-09-27 00:00:00 12.9 4 Este 10 Este 0 -- -- 91
2019-09-26 23:00:00 12.7 0 Calma 6 Nordeste 0 -- -- 91
2019-09-26 22:00:00 13.1 0 Calma 4 Sudeste 0 -- -- 89
2019-09-26 21:00:00 14.4 0 Calma 5 Nordeste 0 -- -- 85
2019-09-26 20:00:00 16.4 2 Sur 13 Sudoeste 0 -- -- 74
2019-09-26 19:00:00 18.7 4 Oeste 24 Noroeste 0 -- -- 63
2019-09-26 18:00:00 20.8 8 Sudoeste 25 Sudoeste 0 -- -- 56
2019-09-26 17:00:00 22.5 10 Sudoeste 29 Sudoeste 0 -- -- 51
2019-09-26 16:00:00 23.9 8 Sudoeste 23 Sudoeste 0 -- -- 48
2019-09-26 15:00:00 24.4 5 Sudoeste 14 Sudoeste 0 -- -- 46
2019-09-26 14:00:00 23.1 3 Oeste 11 Oeste 0 -- -- 49
2019-09-26 13:00:00 21.3 4 Sudoeste 14 Oeste 0 -- -- 54
2019-09-26 12:00:00 19 5 Sudoeste 14 Sudoeste 0 -- -- 61
2019-09-26 11:00:00 16.8 0 Calma 3 Sudeste 0 -- -- 73
2019-09-26 10:00:00 13.1 0 Calma 14 Este 0 -- -- 85
2019-09-26 09:00:00 10.9 3 Este 10 Este 0 -- -- 91
2019-09-26 08:00:00 10.5 0 Calma 8 Este 0 -- -- 92
2019-09-26 07:00:00 11.9 5 Nordeste 10 Este 0 -- -- 91
2019-09-26 06:00:00 11.9 0 Calma 10 Este 0 -- -- 90
2019-09-26 05:00:00 12.1 3 Este 8 Este 0 -- -- 91
2019-09-26 04:00:00 12.2 0 Calma 3 Sudeste 0 -- -- 89
2019-09-26 03:00:00 12.1 0 Calma 6 Sudeste 0 -- -- 89
2019-09-26 02:00:00 12.3 0 Calma 11 Sudoeste 0 -- -- 88
2019-09-26 01:00:00 12.6 0 Calma 6 Este 0 -- -- 86
2019-09-26 00:00:00 12.5 3 Sudeste 7 Sudeste 0 -- -- 86
2019-09-25 23:00:00 12.8 0 Calma 11 Sudoeste 0 -- -- 84
2019-09-25 22:00:00 13.3 2 Sudoeste 10 Oeste 0 -- -- 81
2019-09-25 21:00:00 13.7 3 Noroeste 14 Oeste 0 -- -- 77
2019-09-25 20:00:00 14.2 4 Sudoeste 17 Sudoeste 0 -- -- 71
2019-09-25 19:00:00 14.9 2 Sudoeste 14 Sudoeste 0 -- -- 67
2019-09-25 18:00:00 15.8 3 Oeste 14 Sudoeste 0 -- -- 65
2019-09-25 17:00:00 16.4 6 Sudoeste 21 Sudoeste 0 -- -- 60
2019-09-25 16:00:00 17.4 5 Sudoeste 23 Oeste 0 -- -- 60
2019-09-25 15:00:00 19.2 7 Sudoeste 17 Sudoeste 0 -- -- 51
2019-09-25 14:00:00 18.2 6 Oeste 19 Oeste 0 -- -- 57
2019-09-25 13:00:00 17.1 5 Sudoeste 15 Oeste 0 -- -- 65
2019-09-25 12:00:00 14.2 5 Oeste 16 Oeste 0 -- -- 75
2019-09-25 11:00:00 12.9 4 Sudoeste 10 Oeste 0 -- -- 85
2019-09-25 10:00:00 12.1 2 Sudoeste 12 Sur 0 -- -- 86
2019-09-25 09:00:00 11.5 0 Calma 9 Oeste 0 -- -- 88
2019-09-25 08:00:00 11.3 2 Oeste 10 Noroeste 0 -- -- 89
2019-09-25 07:00:00 11.2 0 Calma 13 Oeste 0 -- -- 89
2019-09-25 06:00:00 11.4 3 Oeste 10 Oeste 0 -- -- 87
2019-09-25 05:00:00 11.6 2 Oeste 12 Noroeste 0 -- -- 85
2019-09-25 04:00:00 12.1 4 Oeste 13 Oeste 0 -- -- 86
2019-09-25 03:00:00 12.8 6 Sudoeste 19 Oeste 0 -- -- 86
2019-09-25 02:00:00 13.2 4 Sudoeste 13 Sudoeste 0 -- -- 92
2019-09-25 01:00:00 14.1 0 Calma 10 Sudoeste 0 -- -- 90
2019-09-25 00:00:00 14.9 3 Sudoeste 10 Oeste 0 -- -- 87
2019-09-24 23:00:00 15.2 0 Calma 6 Sudeste 0 -- -- 82
2019-09-24 22:00:00 15.8 0 Calma 18 Sudoeste 0 -- -- 75
2019-09-24 21:00:00 17.1 5 Sudoeste 16 Sudoeste 0 -- -- 66
2019-09-24 20:00:00 17.8 7 Sudoeste 22 Oeste 0 -- -- 62
2019-09-24 19:00:00 19 6 Sudoeste 24 Sudoeste 0 -- -- 56
2019-09-24 18:00:00 20.9 7 Sudoeste 21 Sudoeste 0 -- -- 50
2019-09-24 17:00:00 24.1 7 Sudoeste 23 Oeste 0 -- -- 44
2019-09-24 16:00:00 25 6 Sudoeste 21 Oeste 0 -- -- 45
2019-09-24 15:00:00 24.5 7 Sudoeste 24 Sudoeste 0 -- -- 44
2019-09-24 14:00:00 24.4 7 Sudoeste 19 Sudoeste 0 -- -- 44
2019-09-24 13:00:00 23.2 8 Sudoeste -- -- -- -- -- 46
2019-09-24 12:00:00 22.2 6 Sudoeste 14 Sudoeste 0 -- -- 51
2019-09-24 11:00:00 19.6 3 Sur 11 Este 0 -- -- 61
2019-09-24 10:00:00 16.3 5 Sudeste 17 Sudeste 0 -- -- 67
2019-09-24 09:00:00 14.8 8 Este 21 Sudeste 0 -- -- 68
2019-09-24 08:00:00 14 6 Este 15 Sudeste 0 -- -- 69
2019-09-24 07:00:00 13.8 6 Este 16 Este 0 -- -- 70
2019-09-24 06:00:00 14 7 Sudeste 16 Sudeste 0 -- -- 69
2019-09-24 05:00:00 11.3 0 Calma 11 Sudeste 0 -- -- 82
2019-09-24 04:00:00 12.7 3 Sudeste 15 Sudeste 0 -- -- 73
2019-09-24 03:00:00 11.6 0 Calma 18 Sudeste 0 -- -- 78
2019-09-24 02:00:00 13.8 9 Sudeste 18 Sudeste 0 -- -- 66
2019-09-24 01:00:00 11.1 2 Sudeste 10 Este 0 -- -- 83
2019-09-24 00:00:00 11.1 3 Este 13 Nordeste 0 -- -- 84
2019-09-23 23:00:00 10.9 3 Este 10 Nordeste 0 -- -- 86
2019-09-23 22:00:00 12.4 6 Este 14 Nordeste 0 -- -- 78
2019-09-23 21:00:00 12 3 Este 10 Este 0 -- -- 82
2019-09-23 20:00:00 13.8 2 Nordeste 13 Oeste 0 -- -- 72
2019-09-23 19:00:00 16.7 3 Oeste 15 Oeste 0 -- -- 55
2019-09-23 18:00:00 18.7 5 Sudoeste 16 Sudoeste 0 -- -- 50
2019-09-23 17:00:00 20.7 4 Sudoeste 15 Sudoeste 0 -- -- 47
2019-09-23 16:00:00 20 4 Sudoeste 16 Sudoeste 0 -- -- 46
2019-09-23 15:00:00 20.5 4 Oeste 18 Oeste 0 -- -- 45
2019-09-23 14:00:00 20.4 5 Sudoeste 17 Oeste 0 -- -- 49
2019-09-23 13:00:00 18.9 4 Oeste 12 Oeste 0 -- -- 51
2019-09-23 12:00:00 17.2 2 Sudoeste 6 Sur 0 -- -- 56
2019-09-23 11:00:00 14.1 0 Calma 4 Nordeste 0 -- -- 68
2019-09-23 10:00:00 10.7 0 Calma 4 Sudoeste 0 -- -- 89
2019-09-23 09:00:00 8.9 3 Este 10 Este 0 -- -- 88
2019-09-23 08:00:00 8 0 Calma 10 Este 0 -- -- 92
2019-09-23 07:00:00 8.8 4 Nordeste 9 Nordeste 0 -- -- 91
2019-09-23 06:00:00 10.6 0 Calma 4 Este 0 -- -- 93
2019-09-23 05:00:00 10.8 0 Calma 8 Sudoeste 0 -- -- 94
2019-09-23 04:00:00 11 0 Calma 6 Sudeste 0 -- -- 93
2019-09-23 03:00:00 11.2 0 Calma 8 Sudeste 0 -- -- 93
2019-09-23 02:00:00 11.4 0 Calma 9 Oeste 0 -- -- 90
2019-09-23 01:00:00 11.7 2 Oeste 9 Oeste 0 -- -- 89
2019-09-23 00:00:00 12.1 3 Sudoeste 14 Oeste 0 -- -- 88
2019-09-22 23:00:00 12.2 2 Oeste 11 Sudoeste 0 -- -- 90
2019-09-22 22:00:00 12.4 2 Oeste 12 Sudoeste 0 -- -- 90
2019-09-22 21:00:00 12.8 4 Sudoeste 18 Sudoeste 0 -- -- 85
2019-09-22 20:00:00 13.3 6 Sudoeste 19 Sudoeste 0 -- -- 85
2019-09-22 19:00:00 14 5 Sudoeste 18 Oeste 0 -- -- 85
2019-09-22 18:00:00 14.3 2 Sudoeste 12 Oeste 0.1 -- -- 88
2019-09-22 17:00:00 14.1 4 Oeste 23 Sudoeste 0.7 -- -- 88
2019-09-22 16:00:00 15.3 10 Sudoeste 27 Sudoeste 0 -- -- 79
2019-09-22 15:00:00 17.6 4 Oeste 26 Sudoeste 0 -- -- 70
2019-09-22 14:00:00 20.9 9 Sudoeste 25 Sudoeste 0 -- -- 61
2019-09-22 13:00:00 22.6 5 Oeste 17 Sudoeste 0 -- -- 57
2019-09-22 12:00:00 20.9 0 Calma 9 Sudoeste 0 -- -- 66
2019-09-22 11:00:00 18.3 0 Calma 7 Sudeste 0 -- -- 76
2019-09-22 10:00:00 16.6 0 Calma 12 Sudeste 0 -- -- 79
2019-09-22 09:00:00 15.3 2 Este 7 Nordeste 0 -- -- 84
2019-09-22 08:00:00 15.6 3 Sudeste 9 Sudeste 0 -- -- 79
2019-09-22 07:00:00 15.4 0 Calma 10 Este 0 -- -- 78
2019-09-22 06:00:00 16 3 Sudeste 12 Este 0 -- -- 73
2019-09-22 05:00:00 15.2 2 Nordeste 11 Sudeste 0 -- -- 75
2019-09-22 04:00:00 15.9 2 Sudeste 15 Este 0 -- -- 72
2019-09-22 03:00:00 16.3 6 Este 18 Este 0 -- -- 68
2019-09-22 02:00:00 16 6 Este 17 Nordeste 0 -- -- 66
2019-09-22 01:00:00 14.2 5 Este 13 Sudeste 0 -- -- 75
2019-09-22 00:00:00 13.9 0 Calma 12 Nordeste 0 -- -- 75
2019-09-21 23:00:00 12.9 3 Nordeste 13 Nordeste 0 -- -- 78
2019-09-21 22:00:00 13.6 0 Calma 12 Nordeste 0 -- -- 78
2019-09-21 21:00:00 13.9 0 Calma 10 Nordeste 0 -- -- 79
2019-09-21 20:00:00 15.1 0 Calma 5 Nordeste 0 -- -- 78
2019-09-21 19:00:00 18.2 0 Calma 13 Sudoeste 0 -- -- 67
2019-09-21 18:00:00 19.3 0 Calma 8 Noroeste 0 -- -- 62
2019-09-21 17:00:00 19.4 2 Nordeste 11 Oeste 0 -- -- 69
2019-09-21 16:00:00 19.3 0 Calma 18 Sudoeste 0 -- -- 63
2019-09-21 15:00:00 20.3 3 Oeste 21 Oeste 0 -- -- 51
2019-09-21 14:00:00 21.2 3 Oeste 12 Sudoeste 0 -- -- 49
2019-09-21 13:00:00 20.9 2 Oeste 15 Oeste 0 -- -- 49
2019-09-21 12:00:00 19.5 2 Sudeste 11 Sudeste 0 -- -- 60
2019-09-21 11:00:00 17.2 5 Este 16 Este 0 -- -- 66
2019-09-21 10:00:00 16.6 0 Calma 15 Sudeste 0 -- -- 71
2019-09-21 09:00:00 15.9 5 Este 13 Este 0 -- -- 67
2019-09-21 08:00:00 13.9 4 Nordeste 12 Nordeste 0 -- -- 77
2019-09-21 07:00:00 14.2 3 Nordeste 12 Este 0 -- -- 76
2019-09-21 06:00:00 16.4 6 Este 19 Sudeste 0 -- -- 60
2019-09-21 05:00:00 15.2 9 Este 23 Este 0 -- -- 64
2019-09-21 04:00:00 15 5 Este 17 Nordeste 0 -- -- 63
2019-09-21 03:00:00 15.1 7 Nordeste 16 Nordeste 0 -- -- 66
2019-09-21 02:00:00 15.4 7 Este 17 Este 0 -- -- 69
2019-09-21 01:00:00 14.6 5 Este 13 Sudeste 0 -- -- 75
2019-09-21 00:00:00 15.2 4 Nordeste 14 Nordeste 0 -- -- 71
2019-09-20 23:00:00 16.1 10 Nordeste 19 Nordeste 0 -- -- 70
2019-09-20 22:00:00 15.9 10 Este 21 Sudeste 0 -- -- 68
2019-09-20 21:00:00 16.5 6 Este 18 Nordeste 0 -- -- 70
2019-09-20 20:00:00 16.8 5 Este 12 Nordeste 0 -- -- 73
2019-09-20 19:00:00 17.5 0 Calma 5 Nordeste 0 -- -- 75
2019-09-20 18:00:00 19.8 0 Calma 7 Sudoeste 0 -- -- 64
2019-09-20 17:00:00 24.6 4 Sudoeste 12 Sudoeste 0 -- -- 44
2019-09-20 16:00:00 24.5 4 Oeste 11 Oeste 0 -- -- 41
2019-09-20 15:00:00 23.5 5 Oeste 19 Sudoeste 0 -- -- 44
2019-09-20 14:00:00 23.6 5 Sudoeste 19 Sudoeste 0 -- -- 42
2019-09-20 13:00:00 21.9 5 Sudoeste 17 Sudoeste 0 -- -- 45
2019-09-20 12:00:00 20.4 4 Oeste 12 Noroeste 0 -- -- 55
2019-09-20 11:00:00 19.8 2 Sudeste 10 Sudeste 0 -- -- 61
2019-09-20 10:00:00 16.3 4 Este 14 Este 0 -- -- 67
2019-09-20 09:00:00 15 5 Sudeste 21 Sudeste 0 -- -- 69
2019-09-20 08:00:00 13.7 8 Sudeste 21 Este 0 -- -- 72
2019-09-20 07:00:00 13.4 6 Este 19 Sudeste 0 -- -- 74
2019-09-20 06:00:00 13.7 7 Este 19 Este 0 -- -- 72
2019-09-20 05:00:00 13.6 8 Este 20 Este 0 -- -- 74
2019-09-20 04:00:00 13.4 7 Este 18 Sudeste 0 -- -- 76
2019-09-20 03:00:00 12.9 3 Este 15 Este 0 -- -- 82
2019-09-20 02:00:00 12.7 5 Este 19 Este 0 -- -- 87
2019-09-20 01:00:00 11.9 4 Este 12 Nordeste 0 -- -- 92
2019-09-20 00:00:00 12.3 3 Este 9 Sudeste 0 -- -- 92
2019-09-19 23:00:00 13.8 3 Este 12 Este 0 -- -- 89
2019-09-19 22:00:00 13.8 0 Calma 5 Nordeste 0 -- -- 93
2019-09-19 21:00:00 14.3 0 Calma 6 Este 0 -- -- 92
2019-09-19 20:00:00 14.8 0 Calma 11 Este 0.4 -- -- 90
2019-09-19 19:00:00 15.5 5 Nordeste 23 Nordeste 0.2 -- -- 82
2019-09-19 18:00:00 17.5 6 Nordeste 13 Sudoeste 0 -- -- 68
2019-09-19 17:00:00 20.9 5 Sudoeste 19 Sudoeste 0 -- -- 52
2019-09-19 16:00:00 24 5 Sudoeste 16 Sudoeste 0 -- -- 45
2019-09-19 15:00:00 23.9 6 Sudoeste 15 Oeste 0 -- -- 43
2019-09-19 14:00:00 21.8 4 Sudoeste 17 Oeste 0 -- -- 50
2019-09-19 13:00:00 21.4 5 Sudoeste 18 Oeste 0 -- -- 53
2019-09-19 12:00:00 20.3 3 Sudoeste 9 Oeste 0 -- -- 59
2019-09-19 11:00:00 14.8 0 Calma 3 Este 0 -- -- 82
2019-09-19 10:00:00 13.8 3 Este 10 Este 0 -- -- 89
2019-09-19 09:00:00 10.7 0 Calma 6 Nordeste 0 -- -- 94
2019-09-19 08:00:00 10.1 0 Calma 12 Nordeste 0 -- -- 93
2019-09-19 07:00:00 10.3 3 Este 10 Este 0 -- -- 93
2019-09-19 06:00:00 10 0 Calma 11 Este 0 -- -- 94
2019-09-19 05:00:00 9.7 2 Nordeste 9 Sudeste 0 -- -- 94
2019-09-19 04:00:00 10.6 4 Este 12 Nordeste 0 -- -- 94
2019-09-19 03:00:00 10.9 0 Calma 10 Nordeste 0 -- -- 94
2019-09-19 02:00:00 11.1 0 Calma 9 Este 0 -- -- 94
2019-09-19 01:00:00 11 0 Calma 4 Sudeste 0 -- -- 94
2019-09-19 00:00:00 11.8 0 Calma 6 Sudeste 0 -- -- 93
2019-09-18 23:00:00 13.1 0 Calma 11 Sudeste 0 -- -- 89
2019-09-18 22:00:00 13.6 3 Este 10 Sudeste 0 -- -- 91
2019-09-18 21:00:00 14.4 5 Este 14 Sudeste 1.3 -- -- 85
2019-09-18 20:00:00 15.4 4 Sur 22 Sudoeste 0.2 -- -- 82
2019-09-18 19:00:00 17.9 6 Sudoeste 28 Sudoeste 0 -- -- 66
2019-09-18 18:00:00 20.7 6 Sudoeste 20 Sudoeste 0 -- -- 67
2019-09-18 17:00:00 21 0 Calma 4 Noroeste 0 -- -- 69
2019-09-18 16:00:00 20.7 3 Sudeste 7 Sudoeste 0 -- -- 66
2019-09-18 15:00:00 22.1 2 Sudoeste 8 Sudeste 0 -- -- 64
2019-09-18 14:00:00 19.7 3 Sudoeste 18 Oeste 0 -- -- 69
2019-09-18 13:00:00 22.9 6 Sudoeste 17 Oeste 0 -- -- 58
2019-09-18 12:00:00 21 0 Calma 4 Nordeste 0 -- -- 61
2019-09-18 11:00:00 17.7 0 Calma 3 Sudeste 0 -- -- 81
2019-09-18 10:00:00 14.7 0 Calma 4 Sudeste 0 -- -- 91
2019-09-18 09:00:00 12.3 0 Calma 4 Nordeste 0 -- -- 95
2019-09-18 08:00:00 12 0 Calma 10 Este 0 -- -- 94
2019-09-18 07:00:00 12.7 3 Este 10 Nordeste 0 -- -- 93
2019-09-18 06:00:00 12.8 4 Este 11 Nordeste 0 -- -- 94
2019-09-18 05:00:00 13 2 Nordeste 8 Nordeste 0 -- -- 94
2019-09-18 04:00:00 13.8 0 Calma 11 Sudeste 0 -- -- 92
2019-09-18 03:00:00 14.5 2 Este 7 Nordeste 0 -- -- 94
2019-09-18 02:00:00 14.9 0 Calma 11 Nordeste 0 -- -- 94
2019-09-18 01:00:00 14.9 2 Este 6 Este 0 -- -- 95
2019-09-18 00:00:00 14.8 0 Calma 10 Este 0 -- -- 93
2019-09-17 23:00:00 14.6 4 Este 8 Nordeste 0 -- -- 94
2019-09-17 22:00:00 15.3 2 Nordeste 12 Sudeste 0.1 -- -- 93
2019-09-17 21:00:00 15.7 6 Este 13 Nordeste 1.2 -- -- 91
2019-09-15 18:00:00 24 2 Noroeste 12 Sudoeste 0 -- -- 58
2019-09-15 17:00:00 26.3 4 Sudoeste 12 Sudoeste 0 -- -- 49
2019-09-15 16:00:00 25.9 3 Sudoeste 16 Oeste 0 -- -- 51
2019-09-15 15:00:00 24.7 2 Oeste 19 Oeste 0 -- -- 53
2019-09-15 14:00:00 24.7 3 Sudoeste 17 Sudoeste 0 -- -- 50
2019-09-15 13:00:00 24.1 4 Sudoeste 10 Oeste 0 -- -- 57
2019-09-15 12:00:00 21.9 0 Calma 4 Sudoeste 0 -- -- 66
2019-09-15 11:00:00 19.3 0 Calma 5 Noroeste 0 -- -- 75
2019-09-15 10:00:00 15.8 0 Calma 12 Sudeste 0 -- -- 86
2019-09-15 09:00:00 13.6 3 Este 14 Este 0 -- -- 90
2019-09-15 08:00:00 13.4 5 Nordeste 14 Nordeste 0 -- -- 90
2019-09-15 07:00:00 13.2 2 Este 12 Este 0.1 -- -- 92
2019-09-15 06:00:00 12.6 0 Calma 15 Este 0 -- -- 91
2019-09-15 05:00:00 13.7 0 Calma 21 Este 0 -- -- 88
2019-09-15 04:00:00 13.3 4 Este 14 Este 0 -- -- 85
2019-09-15 03:00:00 13.9 2 Este 15 Este 0 -- -- 85
2019-09-15 02:00:00 14.5 7 Nordeste 15 Nordeste 0 -- -- 90
2019-09-15 01:00:00 13.6 0 Calma 8 Nordeste 0 -- -- 94
2019-09-15 00:00:00 13.6 3 Este 10 Sudeste 0 -- -- 94